sensor_id;sensor_type;location;lat;lon;timestamp;P1;durP1;ratioP1;P2;durP2;ratioP2
76850;SDS011;65824;43.726;20.692;2024-03-29T00:00:58;3.13;;;1.23;;
76850;SDS011;65824;43.726;20.692;2024-03-29T00:03:27;5.30;;;1.80;;
76850;SDS011;65824;43.726;20.692;2024-03-29T00:05:55;6.25;;;1.35;;
76850;SDS011;65824;43.726;20.692;2024-03-29T00:08:20;5.38;;;1.50;;
76850;SDS011;65824;43.726;20.692;2024-03-29T00:10:47;4.93;;;1.30;;
76850;SDS011;65824;43.726;20.692;2024-03-29T00:13:13;4.05;;;1.33;;
76850;SDS011;65824;43.726;20.692;2024-03-29T00:15:38;3.53;;;1.08;;
76850;SDS011;65824;43.726;20.692;2024-03-29T00:18:04;2.97;;;1.10;;
76850;SDS011;65824;43.726;20.692;2024-03-29T00:20:31;4.50;;;1.30;;
76850;SDS011;65824;43.726;20.692;2024-03-29T00:22:56;4.38;;;1.10;;
76850;SDS011;65824;43.726;20.692;2024-03-29T00:25:23;8.85;;;2.38;;
76850;SDS011;65824;43.726;20.692;2024-03-29T00:27:48;4.68;;;1.27;;
76850;SDS011;65824;43.726;20.692;2024-03-29T00:30:14;4.57;;;1.30;;
76850;SDS011;65824;43.726;20.692;2024-03-29T00:32:39;3.17;;;1.25;;
76850;SDS011;65824;43.726;20.692;2024-03-29T00:35:05;4.57;;;1.10;;
76850;SDS011;65824;43.726;20.692;2024-03-29T00:37:31;4.38;;;1.40;;
76850;SDS011;65824;43.726;20.692;2024-03-29T00:39:57;3.10;;;1.10;;
76850;SDS011;65824;43.726;20.692;2024-03-29T00:42:24;5.55;;;1.60;;
76850;SDS011;65824;43.726;20.692;2024-03-29T00:44:49;6.82;;;2.03;;
76850;SDS011;65824;43.726;20.692;2024-03-29T00:47:18;6.18;;;1.70;;
76850;SDS011;65824;43.726;20.692;2024-03-29T00:49:43;5.78;;;1.85;;
76850;SDS011;65824;43.726;20.692;2024-03-29T00:52:08;8.63;;;2.70;;
76850;SDS011;65824;43.726;20.692;2024-03-29T00:54:34;5.05;;;1.90;;
76850;SDS011;65824;43.726;20.692;2024-03-29T00:57:02;3.78;;;1.27;;
76850;SDS011;65824;43.726;20.692;2024-03-29T00:59:28;3.45;;;1.00;;
76850;SDS011;65824;43.726;20.692;2024-03-29T01:01:53;3.90;;;1.10;;
76850;SDS011;65824;43.726;20.692;2024-03-29T01:04:20;4.50;;;1.77;;
76850;SDS011;65824;43.726;20.692;2024-03-29T01:06:45;4.07;;;1.50;;
76850;SDS011;65824;43.726;20.692;2024-03-29T01:09:11;4.53;;;1.33;;
76850;SDS011;65824;43.726;20.692;2024-03-29T01:11:38;3.63;;;1.10;;
76850;SDS011;65824;43.726;20.692;2024-03-29T01:14:04;6.40;;;1.10;;
76850;SDS011;65824;43.726;20.692;2024-03-29T01:16:30;3.75;;;1.02;;
76850;SDS011;65824;43.726;20.692;2024-03-29T01:18:59;3.78;;;1.20;;
76850;SDS011;65824;43.726;20.692;2024-03-29T01:21:26;4.53;;;1.17;;
76850;SDS011;65824;43.726;20.692;2024-03-29T01:23:51;2.70;;;0.95;;
76850;SDS011;65824;43.726;20.692;2024-03-29T01:26:17;5.22;;;1.15;;
76850;SDS011;65824;43.726;20.692;2024-03-29T01:28:45;5.07;;;1.15;;
76850;SDS011;65824;43.726;20.692;2024-03-29T01:31:11;6.25;;;1.40;;
76850;SDS011;65824;43.726;20.692;2024-03-29T01:33:37;5.60;;;1.25;;
76850;SDS011;65824;43.726;20.692;2024-03-29T01:36:04;3.10;;;1.10;;
76850;SDS011;65824;43.726;20.692;2024-03-29T01:38:30;4.35;;;1.20;;
76850;SDS011;65824;43.726;20.692;2024-03-29T01:40:55;2.72;;;0.88;;
76850;SDS011;65824;43.726;20.692;2024-03-29T01:43:22;5.05;;;1.23;;
76850;SDS011;65824;43.726;20.692;2024-03-29T01:45:48;4.05;;;1.05;;
76850;SDS011;65824;43.726;20.692;2024-03-29T01:48:16;3.58;;;1.05;;
76850;SDS011;65824;43.726;20.692;2024-03-29T01:50:42;4.00;;;1.10;;
76850;SDS011;65824;43.726;20.692;2024-03-29T01:53:08;25.63;;;5.38;;
76850;SDS011;65824;43.726;20.692;2024-03-29T01:55:34;33.78;;;6.63;;
76850;SDS011;65824;43.726;20.692;2024-03-29T01:58:00;22.30;;;4.70;;
76850;SDS011;65824;43.726;20.692;2024-03-29T02:00:28;5.47;;;1.58;;
76850;SDS011;65824;43.726;20.692;2024-03-29T02:02:56;4.35;;;1.40;;
76850;SDS011;65824;43.726;20.692;2024-03-29T02:05:23;5.05;;;1.40;;
76850;SDS011;65824;43.726;20.692;2024-03-29T02:07:50;4.88;;;1.55;;
76850;SDS011;65824;43.726;20.692;2024-03-29T02:10:15;4.75;;;2.20;;
76850;SDS011;65824;43.726;20.692;2024-03-29T02:12:41;4.68;;;1.50;;
76850;SDS011;65824;43.726;20.692;2024-03-29T02:15:08;6.03;;;1.63;;
76850;SDS011;65824;43.726;20.692;2024-03-29T02:17:35;4.03;;;2.10;;
76850;SDS011;65824;43.726;20.692;2024-03-29T02:20:00;5.22;;;2.05;;
76850;SDS011;65824;43.726;20.692;2024-03-29T02:22:27;5.82;;;1.85;;
76850;SDS011;65824;43.726;20.692;2024-03-29T02:24:54;4.65;;;1.90;;
76850;SDS011;65824;43.726;20.692;2024-03-29T02:27:21;5.88;;;1.50;;
76850;SDS011;65824;43.726;20.692;2024-03-29T02:29:47;4.82;;;1.50;;
76850;SDS011;65824;43.726;20.692;2024-03-29T02:32:13;5.35;;;1.40;;
76850;SDS011;65824;43.726;20.692;2024-03-29T02:34:38;4.57;;;1.60;;
76850;SDS011;65824;43.726;20.692;2024-03-29T02:37:04;3.88;;;1.27;;
76850;SDS011;65824;43.726;20.692;2024-03-29T02:39:31;5.38;;;1.55;;
76850;SDS011;65824;43.726;20.692;2024-03-29T02:41:57;7.10;;;1.58;;
76850;SDS011;65824;43.726;20.692;2024-03-29T02:44:23;6.97;;;1.40;;
76850;SDS011;65824;43.726;20.692;2024-03-29T02:46:50;7.07;;;2.33;;
76850;SDS011;65824;43.726;20.692;2024-03-29T02:49:16;3.92;;;1.55;;
76850;SDS011;65824;43.726;20.692;2024-03-29T02:51:41;5.50;;;1.80;;
76850;SDS011;65824;43.726;20.692;2024-03-29T02:54:06;6.15;;;1.65;;
76850;SDS011;65824;43.726;20.692;2024-03-29T02:56:34;5.75;;;1.60;;
76850;SDS011;65824;43.726;20.692;2024-03-29T02:58:59;4.43;;;1.65;;
76850;SDS011;65824;43.726;20.692;2024-03-29T03:01:25;3.05;;;1.20;;
76850;SDS011;65824;43.726;20.692;2024-03-29T03:03:50;6.97;;;1.40;;
76850;SDS011;65824;43.726;20.692;2024-03-29T03:06:16;5.07;;;1.50;;
76850;SDS011;65824;43.726;20.692;2024-03-29T03:08:42;6.65;;;1.85;;
76850;SDS011;65824;43.726;20.692;2024-03-29T03:11:29;3.67;;;1.42;;
76850;SDS011;65824;43.726;20.692;2024-03-29T03:13:55;3.72;;;1.40;;
76850;SDS011;65824;43.726;20.692;2024-03-29T03:16:21;4.35;;;1.42;;
76850;SDS011;65824;43.726;20.692;2024-03-29T03:18:46;5.80;;;1.77;;
76850;SDS011;65824;43.726;20.692;2024-03-29T03:21:14;4.95;;;1.40;;
76850;SDS011;65824;43.726;20.692;2024-03-29T03:23:40;4.57;;;1.40;;
76850;SDS011;65824;43.726;20.692;2024-03-29T03:26:06;5.43;;;1.30;;
76850;SDS011;65824;43.726;20.692;2024-03-29T03:28:31;3.40;;;1.63;;
76850;SDS011;65824;43.726;20.692;2024-03-29T03:30:58;3.85;;;1.50;;
76850;SDS011;65824;43.726;20.692;2024-03-29T03:33:24;4.70;;;1.40;;
76850;SDS011;65824;43.726;20.692;2024-03-29T03:35:50;4.85;;;1.42;;
76850;SDS011;65824;43.726;20.692;2024-03-29T03:38:16;5.05;;;1.58;;
76850;SDS011;65824;43.726;20.692;2024-03-29T03:40:43;4.47;;;1.73;;
76850;SDS011;65824;43.726;20.692;2024-03-29T03:43:11;4.28;;;1.20;;
76850;SDS011;65824;43.726;20.692;2024-03-29T03:45:38;5.63;;;1.40;;
76850;SDS011;65824;43.726;20.692;2024-03-29T03:48:05;4.32;;;1.73;;
76850;SDS011;65824;43.726;20.692;2024-03-29T03:50:32;3.28;;;1.23;;
76850;SDS011;65824;43.726;20.692;2024-03-29T03:52:57;4.93;;;1.30;;
76850;SDS011;65824;43.726;20.692;2024-03-29T03:55:24;5.88;;;1.38;;
76850;SDS011;65824;43.726;20.692;2024-03-29T03:57:50;5.38;;;1.40;;
76850;SDS011;65824;43.726;20.692;2024-03-29T04:00:17;7.45;;;1.85;;
76850;SDS011;65824;43.726;20.692;2024-03-29T04:02:46;5.03;;;1.67;;
76850;SDS011;65824;43.726;20.692;2024-03-29T04:05:13;8.23;;;1.70;;
76850;SDS011;65824;43.726;20.692;2024-03-29T04:07:39;5.88;;;1.67;;
76850;SDS011;65824;43.726;20.692;2024-03-29T04:10:04;6.15;;;1.90;;
76850;SDS011;65824;43.726;20.692;2024-03-29T04:12:30;15.30;;;2.75;;
76850;SDS011;65824;43.726;20.692;2024-03-29T04:14:55;9.75;;;2.28;;
76850;SDS011;65824;43.726;20.692;2024-03-29T04:17:22;6.10;;;2.15;;
76850;SDS011;65824;43.726;20.692;2024-03-29T04:19:48;6.03;;;1.67;;
76850;SDS011;65824;43.726;20.692;2024-03-29T04:22:15;7.18;;;2.28;;
76850;SDS011;65824;43.726;20.692;2024-03-29T04:24:40;8.57;;;2.75;;
76850;SDS011;65824;43.726;20.692;2024-03-29T04:27:09;8.43;;;1.88;;
76850;SDS011;65824;43.726;20.692;2024-03-29T04:29:35;6.68;;;1.95;;
76850;SDS011;65824;43.726;20.692;2024-03-29T04:32:00;4.15;;;2.00;;
76850;SDS011;65824;43.726;20.692;2024-03-29T04:34:26;4.20;;;1.77;;
76850;SDS011;65824;43.726;20.692;2024-03-29T04:36:51;5.07;;;1.75;;
76850;SDS011;65824;43.726;20.692;2024-03-29T04:39:17;6.07;;;2.53;;
76850;SDS011;65824;43.726;20.692;2024-03-29T04:41:42;12.52;;;4.13;;
76850;SDS011;65824;43.726;20.692;2024-03-29T04:44:07;11.88;;;3.85;;
76850;SDS011;65824;43.726;20.692;2024-03-29T04:46:36;9.35;;;3.83;;
76850;SDS011;65824;43.726;20.692;2024-03-29T04:49:02;11.00;;;4.53;;
76850;SDS011;65824;43.726;20.692;2024-03-29T04:51:27;10.57;;;4.30;;
76850;SDS011;65824;43.726;20.692;2024-03-29T04:53:53;7.57;;;2.92;;
76850;SDS011;65824;43.726;20.692;2024-03-29T04:56:18;7.13;;;2.90;;
76850;SDS011;65824;43.726;20.692;2024-03-29T04:58:44;8.10;;;3.33;;
76850;SDS011;65824;43.726;20.692;2024-03-29T05:01:12;7.35;;;3.58;;
76850;SDS011;65824;43.726;20.692;2024-03-29T05:03:38;7.57;;;2.80;;
76850;SDS011;65824;43.726;20.692;2024-03-29T05:06:04;9.20;;;3.33;;
76850;SDS011;65824;43.726;20.692;2024-03-29T05:08:30;10.80;;;3.85;;
76850;SDS011;65824;43.726;20.692;2024-03-29T05:10:56;8.00;;;3.83;;
76850;SDS011;65824;43.726;20.692;2024-03-29T05:13:21;10.35;;;4.03;;
76850;SDS011;65824;43.726;20.692;2024-03-29T05:15:47;16.38;;;7.18;;
76850;SDS011;65824;43.726;20.692;2024-03-29T05:18:14;25.10;;;9.75;;
76850;SDS011;65824;43.726;20.692;2024-03-29T05:20:39;27.80;;;11.05;;
76850;SDS011;65824;43.726;20.692;2024-03-29T05:23:13;26.55;;;11.13;;
76850;SDS011;65824;43.726;20.692;2024-03-29T05:25:39;23.38;;;9.85;;
76850;SDS011;65824;43.726;20.692;2024-03-29T05:28:05;26.35;;;8.18;;
76850;SDS011;65824;43.726;20.692;2024-03-29T05:30:32;20.90;;;7.13;;
76850;SDS011;65824;43.726;20.692;2024-03-29T05:33:01;19.13;;;6.47;;
76850;SDS011;65824;43.726;20.692;2024-03-29T05:35:28;15.45;;;5.90;;
76850;SDS011;65824;43.726;20.692;2024-03-29T05:37:53;18.05;;;5.60;;
76850;SDS011;65824;43.726;20.692;2024-03-29T05:40:19;11.93;;;5.80;;
76850;SDS011;65824;43.726;20.692;2024-03-29T05:42:50;14.50;;;5.65;;
76850;SDS011;65824;43.726;20.692;2024-03-29T05:45:26;10.23;;;4.25;;
76850;SDS011;65824;43.726;20.692;2024-03-29T05:47:53;13.30;;;4.15;;
76850;SDS011;65824;43.726;20.692;2024-03-29T05:50:20;5.43;;;2.80;;
76850;SDS011;65824;43.726;20.692;2024-03-29T05:52:47;8.25;;;2.88;;
76850;SDS011;65824;43.726;20.692;2024-03-29T05:55:12;7.75;;;3.08;;
76850;SDS011;65824;43.726;20.692;2024-03-29T05:57:38;11.13;;;3.20;;
76850;SDS011;65824;43.726;20.692;2024-03-29T06:00:06;10.35;;;3.72;;
76850;SDS011;65824;43.726;20.692;2024-03-29T06:02:38;7.07;;;2.72;;
76850;SDS011;65824;43.726;20.692;2024-03-29T06:05:04;8.07;;;2.78;;
76850;SDS011;65824;43.726;20.692;2024-03-29T06:07:31;11.05;;;2.60;;
76850;SDS011;65824;43.726;20.692;2024-03-29T06:09:58;6.90;;;2.60;;
76850;SDS011;65824;43.726;20.692;2024-03-29T06:12:25;9.30;;;2.72;;
76850;SDS011;65824;43.726;20.692;2024-03-29T06:14:56;6.82;;;2.65;;
76850;SDS011;65824;43.726;20.692;2024-03-29T06:18:00;6.63;;;2.50;;
76850;SDS011;65824;43.726;20.692;2024-03-29T06:20:25;7.50;;;2.40;;
76850;SDS011;65824;43.726;20.692;2024-03-29T06:22:52;6.85;;;3.22;;
76850;SDS011;65824;43.726;20.692;2024-03-29T06:25:18;13.25;;;3.30;;
76850;SDS011;65824;43.726;20.692;2024-03-29T06:27:48;10.27;;;4.00;;
76850;SDS011;65824;43.726;20.692;2024-03-29T06:30:14;12.88;;;4.40;;
76850;SDS011;65824;43.726;20.692;2024-03-29T06:32:42;12.32;;;4.75;;
76850;SDS011;65824;43.726;20.692;2024-03-29T06:35:07;11.50;;;4.85;;
76850;SDS011;65824;43.726;20.692;2024-03-29T06:37:33;10.25;;;3.92;;
76850;SDS011;65824;43.726;20.692;2024-03-29T06:39:59;8.07;;;3.40;;
76850;SDS011;65824;43.726;20.692;2024-03-29T06:42:24;9.20;;;2.83;;
76850;SDS011;65824;43.726;20.692;2024-03-29T06:44:50;9.23;;;3.60;;
76850;SDS011;65824;43.726;20.692;2024-03-29T06:47:17;13.02;;;5.10;;
76850;SDS011;65824;43.726;20.692;2024-03-29T06:49:42;13.90;;;5.30;;
76850;SDS011;65824;43.726;20.692;2024-03-29T06:52:08;10.35;;;4.00;;
76850;SDS011;65824;43.726;20.692;2024-03-29T06:54:34;10.23;;;3.40;;
76850;SDS011;65824;43.726;20.692;2024-03-29T06:57:00;15.25;;;3.83;;
76850;SDS011;65824;43.726;20.692;2024-03-29T06:59:28;6.50;;;3.08;;
76850;SDS011;65824;43.726;20.692;2024-03-29T07:01:53;5.25;;;2.30;;
76850;SDS011;65824;43.726;20.692;2024-03-29T07:04:20;5.72;;;2.35;;
76850;SDS011;65824;43.726;20.692;2024-03-29T07:06:46;10.00;;;3.55;;
76850;SDS011;65824;43.726;20.692;2024-03-29T07:09:18;5.72;;;2.20;;
76850;SDS011;65824;43.726;20.692;2024-03-29T07:11:47;5.45;;;2.00;;
76850;SDS011;65824;43.726;20.692;2024-03-29T07:14:14;5.20;;;2.00;;
76850;SDS011;65824;43.726;20.692;2024-03-29T07:16:41;5.32;;;1.80;;
76850;SDS011;65824;43.726;20.692;2024-03-29T07:19:11;4.95;;;1.70;;
76850;SDS011;65824;43.726;20.692;2024-03-29T07:21:38;10.57;;;2.15;;
76850;SDS011;65824;43.726;20.692;2024-03-29T07:24:07;6.68;;;2.00;;
76850;SDS011;65824;43.726;20.692;2024-03-29T07:26:33;6.43;;;1.98;;
76850;SDS011;65824;43.726;20.692;2024-03-29T07:29:00;4.60;;;2.00;;
76850;SDS011;65824;43.726;20.692;2024-03-29T07:31:26;6.53;;;1.70;;
76850;SDS011;65824;43.726;20.692;2024-03-29T07:33:55;7.47;;;1.58;;
76850;SDS011;65824;43.726;20.692;2024-03-29T07:36:21;5.88;;;1.60;;
76850;SDS011;65824;43.726;20.692;2024-03-29T07:38:49;4.25;;;1.50;;
76850;SDS011;65824;43.726;20.692;2024-03-29T07:41:15;7.20;;;1.80;;
76850;SDS011;65824;43.726;20.692;2024-03-29T07:43:40;5.15;;;1.90;;
76850;SDS011;65824;43.726;20.692;2024-03-29T07:46:18;6.65;;;1.65;;
76850;SDS011;65824;43.726;20.692;2024-03-29T07:48:44;7.05;;;2.72;;
76850;SDS011;65824;43.726;20.692;2024-03-29T07:51:09;8.00;;;2.13;;
76850;SDS011;65824;43.726;20.692;2024-03-29T07:53:36;8.98;;;2.10;;
76850;SDS011;65824;43.726;20.692;2024-03-29T07:56:03;3.92;;;1.35;;
76850;SDS011;65824;43.726;20.692;2024-03-29T07:58:28;5.80;;;1.70;;
76850;SDS011;65824;43.726;20.692;2024-03-29T08:00:56;3.92;;;1.40;;
76850;SDS011;65824;43.726;20.692;2024-03-29T08:03:22;3.85;;;1.73;;
76850;SDS011;65824;43.726;20.692;2024-03-29T08:05:58;6.13;;;1.70;;
76850;SDS011;65824;43.726;20.692;2024-03-29T08:08:32;8.73;;;1.90;;
76850;SDS011;65824;43.726;20.692;2024-03-29T08:10:58;6.32;;;2.00;;
76850;SDS011;65824;43.726;20.692;2024-03-29T08:13:25;6.75;;;1.88;;
76850;SDS011;65824;43.726;20.692;2024-03-29T08:15:58;6.63;;;1.83;;
76850;SDS011;65824;43.726;20.692;2024-03-29T08:18:24;5.68;;;1.75;;
76850;SDS011;65824;43.726;20.692;2024-03-29T08:20:50;5.38;;;1.60;;
76850;SDS011;65824;43.726;20.692;2024-03-29T08:23:21;7.13;;;1.92;;
76850;SDS011;65824;43.726;20.692;2024-03-29T08:25:47;7.65;;;1.60;;
76850;SDS011;65824;43.726;20.692;2024-03-29T08:28:13;4.05;;;1.40;;
76850;SDS011;65824;43.726;20.692;2024-03-29T08:30:39;7.63;;;1.45;;
76850;SDS011;65824;43.726;20.692;2024-03-29T08:33:06;6.35;;;1.80;;
76850;SDS011;65824;43.726;20.692;2024-03-29T08:35:41;6.75;;;1.95;;
76850;SDS011;65824;43.726;20.692;2024-03-29T08:38:27;11.00;;;4.22;;
76850;SDS011;65824;43.726;20.692;2024-03-29T08:40:52;4.15;;;1.30;;
76850;SDS011;65824;43.726;20.692;2024-03-29T08:43:23;7.18;;;1.83;;
76850;SDS011;65824;43.726;20.692;2024-03-29T08:45:54;5.22;;;1.80;;
76850;SDS011;65824;43.726;20.692;2024-03-29T08:48:23;5.70;;;1.77;;
76850;SDS011;65824;43.726;20.692;2024-03-29T08:50:51;6.15;;;1.58;;
76850;SDS011;65824;43.726;20.692;2024-03-29T08:53:18;6.68;;;2.38;;
76850;SDS011;65824;43.726;20.692;2024-03-29T08:55:45;4.43;;;1.60;;
76850;SDS011;65824;43.726;20.692;2024-03-29T08:58:11;7.40;;;1.70;;
76850;SDS011;65824;43.726;20.692;2024-03-29T09:00:37;7.28;;;1.70;;
76850;SDS011;65824;43.726;20.692;2024-03-29T09:03:04;6.20;;;1.40;;
76850;SDS011;65824;43.726;20.692;2024-03-29T09:05:31;7.05;;;1.70;;
76850;SDS011;65824;43.726;20.692;2024-03-29T09:08:02;7.80;;;1.67;;
76850;SDS011;65824;43.726;20.692;2024-03-29T09:10:28;5.65;;;1.50;;
76850;SDS011;65824;43.726;20.692;2024-03-29T09:12:53;7.00;;;1.42;;
76850;SDS011;65824;43.726;20.692;2024-03-29T09:18:40;5.13;;;1.60;;
76850;SDS011;65824;43.726;20.692;2024-03-29T09:21:06;5.45;;;1.55;;
76850;SDS011;65824;43.726;20.692;2024-03-29T09:23:34;6.18;;;1.30;;
76850;SDS011;65824;43.726;20.692;2024-03-29T09:25:59;3.95;;;1.30;;
76850;SDS011;65824;43.726;20.692;2024-03-29T09:28:25;6.85;;;1.58;;
76850;SDS011;65824;43.726;20.692;2024-03-29T09:30:57;6.15;;;1.52;;
76850;SDS011;65824;43.726;20.692;2024-03-29T09:33:24;7.68;;;1.50;;
76850;SDS011;65824;43.726;20.692;2024-03-29T09:35:49;5.43;;;1.80;;
76850;SDS011;65824;43.726;20.692;2024-03-29T09:38:20;6.63;;;1.77;;
76850;SDS011;65824;43.726;20.692;2024-03-29T09:40:46;5.15;;;1.50;;
76850;SDS011;65824;43.726;20.692;2024-03-29T09:43:11;7.20;;;1.85;;
76850;SDS011;65824;43.726;20.692;2024-03-29T09:45:40;3.83;;;1.40;;
76850;SDS011;65824;43.726;20.692;2024-03-29T09:48:07;6.05;;;2.20;;
76850;SDS011;65824;43.726;20.692;2024-03-29T09:50:37;4.15;;;1.33;;
76850;SDS011;65824;43.726;20.692;2024-03-29T09:53:06;4.93;;;1.27;;
76850;SDS011;65824;43.726;20.692;2024-03-29T09:55:35;6.65;;;1.60;;
76850;SDS011;65824;43.726;20.692;2024-03-29T09:58:02;6.85;;;1.85;;
76850;SDS011;65824;43.726;20.692;2024-03-29T10:00:29;3.83;;;1.25;;
76850;SDS011;65824;43.726;20.692;2024-03-29T10:03:05;7.78;;;1.75;;
76850;SDS011;65824;43.726;20.692;2024-03-29T10:05:32;5.60;;;1.58;;
76850;SDS011;65824;43.726;20.692;2024-03-29T10:08:01;8.60;;;2.05;;
76850;SDS011;65824;43.726;20.692;2024-03-29T10:10:32;10.27;;;1.92;;
76850;SDS011;65824;43.726;20.692;2024-03-29T10:13:00;5.70;;;1.52;;
76850;SDS011;65824;43.726;20.692;2024-03-29T10:15:27;6.15;;;1.45;;
76850;SDS011;65824;43.726;20.692;2024-03-29T10:17:54;5.65;;;1.55;;
76850;SDS011;65824;43.726;20.692;2024-03-29T10:20:21;7.72;;;1.60;;
76850;SDS011;65824;43.726;20.692;2024-03-29T10:22:48;4.15;;;1.45;;
76850;SDS011;65824;43.726;20.692;2024-03-29T10:25:15;7.70;;;1.70;;
76850;SDS011;65824;43.726;20.692;2024-03-29T10:27:41;4.90;;;1.40;;
76850;SDS011;65824;43.726;20.692;2024-03-29T10:30:08;6.45;;;1.52;;
76850;SDS011;65824;43.726;20.692;2024-03-29T10:32:39;4.38;;;1.27;;
76850;SDS011;65824;43.726;20.692;2024-03-29T10:35:06;6.10;;;1.65;;
76850;SDS011;65824;43.726;20.692;2024-03-29T10:37:33;6.07;;;1.70;;
76850;SDS011;65824;43.726;20.692;2024-03-29T10:40:12;8.63;;;1.88;;
76850;SDS011;65824;43.726;20.692;2024-03-29T10:42:41;6.63;;;1.88;;
76850;SDS011;65824;43.726;20.692;2024-03-29T10:45:06;8.88;;;1.88;;
76850;SDS011;65824;43.726;20.692;2024-03-29T10:47:33;5.50;;;1.52;;
76850;SDS011;65824;43.726;20.692;2024-03-29T10:49:59;8.52;;;1.50;;
76850;SDS011;65824;43.726;20.692;2024-03-29T10:52:25;5.15;;;1.40;;
76850;SDS011;65824;43.726;20.692;2024-03-29T10:54:55;10.85;;;2.03;;
76850;SDS011;65824;43.726;20.692;2024-03-29T10:57:22;5.03;;;1.40;;
76850;SDS011;65824;43.726;20.692;2024-03-29T10:59:58;8.38;;;2.25;;
76850;SDS011;65824;43.726;20.692;2024-03-29T11:05:15;4.93;;;1.23;;
76850;SDS011;65824;43.726;20.692;2024-03-29T11:07:41;7.25;;;1.88;;
76850;SDS011;65824;43.726;20.692;2024-03-29T11:10:20;5.30;;;1.42;;
76850;SDS011;65824;43.726;20.692;2024-03-29T11:13:06;4.15;;;1.40;;
76850;SDS011;65824;43.726;20.692;2024-03-29T11:15:41;5.50;;;1.30;;
76850;SDS011;65824;43.726;20.692;2024-03-29T11:18:10;5.85;;;1.60;;
76850;SDS011;65824;43.726;20.692;2024-03-29T11:20:36;4.20;;;1.45;;
76850;SDS011;65824;43.726;20.692;2024-03-29T11:23:09;6.03;;;2.00;;
76850;SDS011;65824;43.726;20.692;2024-03-29T11:25:40;5.40;;;1.60;;
76850;SDS011;65824;43.726;20.692;2024-03-29T11:28:13;7.93;;;2.45;;
76850;SDS011;65824;43.726;20.692;2024-03-29T11:30:55;5.35;;;1.50;;
76850;SDS011;65824;43.726;20.692;2024-03-29T11:34:08;4.95;;;1.80;;
76850;SDS011;65824;43.726;20.692;2024-03-29T11:36:21;8.95;;;1.70;;
76850;SDS011;65824;43.726;20.692;2024-03-29T11:38:57;5.68;;;1.27;;
76850;SDS011;65824;43.726;20.692;2024-03-29T11:41:23;5.72;;;1.50;;
76850;SDS011;65824;43.726;20.692;2024-03-29T11:43:51;5.05;;;1.42;;
76850;SDS011;65824;43.726;20.692;2024-03-29T11:46:19;7.05;;;1.80;;
76850;SDS011;65824;43.726;20.692;2024-03-29T11:48:46;6.18;;;1.95;;
76850;SDS011;65824;43.726;20.692;2024-03-29T11:51:15;6.68;;;1.50;;
76850;SDS011;65824;43.726;20.692;2024-03-29T11:53:45;6.30;;;1.92;;
76850;SDS011;65824;43.726;20.692;2024-03-29T11:56:11;5.97;;;1.75;;
76850;SDS011;65824;43.726;20.692;2024-03-29T11:58:37;6.38;;;1.50;;
76850;SDS011;65824;43.726;20.692;2024-03-29T12:01:06;8.73;;;2.33;;
76850;SDS011;65824;43.726;20.692;2024-03-29T12:03:37;9.43;;;2.00;;
76850;SDS011;65824;43.726;20.692;2024-03-29T12:06:05;5.75;;;1.85;;
76850;SDS011;65824;43.726;20.692;2024-03-29T12:08:35;6.85;;;1.98;;
76850;SDS011;65824;43.726;20.692;2024-03-29T12:11:03;5.80;;;1.60;;
76850;SDS011;65824;43.726;20.692;2024-03-29T12:13:29;8.30;;;1.88;;
76850;SDS011;65824;43.726;20.692;2024-03-29T12:15:55;6.13;;;2.17;;
76850;SDS011;65824;43.726;20.692;2024-03-29T12:18:24;7.47;;;2.20;;
76850;SDS011;65824;43.726;20.692;2024-03-29T12:20:53;6.75;;;1.70;;
76850;SDS011;65824;43.726;20.692;2024-03-29T12:23:22;6.88;;;1.95;;
76850;SDS011;65824;43.726;20.692;2024-03-29T12:25:51;6.35;;;1.55;;
76850;SDS011;65824;43.726;20.692;2024-03-29T12:28:18;5.10;;;1.65;;
76850;SDS011;65824;43.726;20.692;2024-03-29T12:30:45;7.63;;;2.05;;
76850;SDS011;65824;43.726;20.692;2024-03-29T12:35:45;3.92;;;1.60;;
76850;SDS011;65824;43.726;20.692;2024-03-29T12:38:15;7.20;;;2.33;;
76850;SDS011;65824;43.726;20.692;2024-03-29T12:40:42;4.90;;;1.45;;
76850;SDS011;65824;43.726;20.692;2024-03-29T12:43:09;6.20;;;1.40;;
76850;SDS011;65824;43.726;20.692;2024-03-29T12:45:35;8.43;;;1.60;;
76850;SDS011;65824;43.726;20.692;2024-03-29T12:48:11;4.82;;;1.70;;
76850;SDS011;65824;43.726;20.692;2024-03-29T12:50:40;8.43;;;1.52;;
76850;SDS011;65824;43.726;20.692;2024-03-29T12:53:07;4.05;;;1.25;;
76850;SDS011;65824;43.726;20.692;2024-03-29T12:55:33;6.25;;;1.42;;
76850;SDS011;65824;43.726;20.692;2024-03-29T12:58:17;7.82;;;1.40;;
76850;SDS011;65824;43.726;20.692;2024-03-29T13:00:47;7.25;;;1.45;;
76850;SDS011;65824;43.726;20.692;2024-03-29T13:03:13;6.78;;;1.60;;
76850;SDS011;65824;43.726;20.692;2024-03-29T13:05:39;6.63;;;1.80;;
76850;SDS011;65824;43.726;20.692;2024-03-29T13:08:11;6.07;;;1.50;;
76850;SDS011;65824;43.726;20.692;2024-03-29T13:10:39;4.45;;;1.60;;
76850;SDS011;65824;43.726;20.692;2024-03-29T13:13:08;8.07;;;1.67;;
76850;SDS011;65824;43.726;20.692;2024-03-29T13:15:34;5.15;;;1.88;;
76850;SDS011;65824;43.726;20.692;2024-03-29T13:18:02;7.20;;;1.70;;
76850;SDS011;65824;43.726;20.692;2024-03-29T13:20:37;7.38;;;1.88;;
76850;SDS011;65824;43.726;20.692;2024-03-29T13:23:08;6.93;;;1.50;;
76850;SDS011;65824;43.726;20.692;2024-03-29T13:25:34;5.70;;;1.90;;
76850;SDS011;65824;43.726;20.692;2024-03-29T13:28:00;7.07;;;1.80;;
76850;SDS011;65824;43.726;20.692;2024-03-29T13:30:26;6.75;;;1.73;;
76850;SDS011;65824;43.726;20.692;2024-03-29T13:32:55;5.15;;;1.60;;
76850;SDS011;65824;43.726;20.692;2024-03-29T13:35:22;7.80;;;1.52;;
76850;SDS011;65824;43.726;20.692;2024-03-29T13:37:48;5.95;;;1.63;;
76850;SDS011;65824;43.726;20.692;2024-03-29T13:40:17;7.60;;;1.70;;
76850;SDS011;65824;43.726;20.692;2024-03-29T13:42:43;7.28;;;1.60;;
76850;SDS011;65824;43.726;20.692;2024-03-29T13:45:09;6.32;;;1.45;;
76850;SDS011;65824;43.726;20.692;2024-03-29T13:47:39;5.07;;;1.70;;
76850;SDS011;65824;43.726;20.692;2024-03-29T13:50:06;5.38;;;1.50;;
76850;SDS011;65824;43.726;20.692;2024-03-29T13:52:33;5.80;;;1.85;;
76850;SDS011;65824;43.726;20.692;2024-03-29T13:54:58;6.75;;;2.03;;
76850;SDS011;65824;43.726;20.692;2024-03-29T13:57:24;6.50;;;1.83;;
76850;SDS011;65824;43.726;20.692;2024-03-29T13:59:52;5.00;;;1.50;;
76850;SDS011;65824;43.726;20.692;2024-03-29T14:02:20;5.70;;;1.55;;
76850;SDS011;65824;43.726;20.692;2024-03-29T14:04:49;5.35;;;1.65;;
76850;SDS011;65824;43.726;20.692;2024-03-29T14:07:16;7.13;;;1.70;;
76850;SDS011;65824;43.726;20.692;2024-03-29T14:09:43;6.10;;;1.77;;
76850;SDS011;65824;43.726;20.692;2024-03-29T14:12:13;6.88;;;2.40;;
76850;SDS011;65824;43.726;20.692;2024-03-29T14:14:40;7.63;;;2.55;;
76850;SDS011;65824;43.726;20.692;2024-03-29T14:17:09;8.43;;;2.40;;
76850;SDS011;65824;43.726;20.692;2024-03-29T14:19:35;10.48;;;2.70;;
76850;SDS011;65824;43.726;20.692;2024-03-29T14:22:01;6.32;;;2.10;;
76850;SDS011;65824;43.726;20.692;2024-03-29T14:24:28;7.60;;;1.80;;
76850;SDS011;65824;43.726;20.692;2024-03-29T14:27:02;9.07;;;2.20;;
76850;SDS011;65824;43.726;20.692;2024-03-29T14:29:31;7.25;;;1.80;;
76850;SDS011;65824;43.726;20.692;2024-03-29T14:31:57;7.70;;;2.33;;
76850;SDS011;65824;43.726;20.692;2024-03-29T14:34:22;7.20;;;2.00;;
76850;SDS011;65824;43.726;20.692;2024-03-29T14:36:49;9.15;;;2.10;;
76850;SDS011;65824;43.726;20.692;2024-03-29T14:39:16;6.85;;;2.20;;
76850;SDS011;65824;43.726;20.692;2024-03-29T14:41:44;10.52;;;2.20;;
76850;SDS011;65824;43.726;20.692;2024-03-29T14:44:11;9.40;;;2.50;;